createdAt,value
2022-10-17T00:03:21.452Z,1.20
2022-10-17T00:06:46.967Z,1.20
2022-10-17T00:10:11.136Z,1.20
2022-10-17T00:13:36.095Z,1.30
2022-10-17T00:16:59.846Z,1.40
2022-10-17T00:20:23.969Z,1.10
2022-10-17T00:23:50.351Z,1.30
2022-10-17T00:27:14.366Z,1.50
2022-10-17T00:30:38.150Z,1.60
2022-10-17T00:34:01.976Z,1.30
2022-10-17T00:37:26.128Z,1.40
2022-10-17T00:40:51.291Z,1.60
2022-10-17T00:44:52.427Z,1.37
2022-10-17T00:48:21.267Z,1.50
2022-10-17T00:51:50.575Z,1.30
2022-10-17T00:55:18.180Z,1.73
2022-10-17T00:58:43.406Z,1.40
2022-10-17T01:02:09.668Z,1.27
2022-10-17T01:05:33.500Z,1.40
2022-10-17T01:08:57.703Z,1.20
2022-10-17T01:12:25.801Z,1.20
2022-10-17T01:16:00.679Z,1.80
2022-10-17T01:19:42.493Z,1.47
2022-10-17T01:23:25.939Z,1.50
2022-10-17T01:27:14.769Z,1.00
2022-10-17T01:31:00.390Z,1.40
2022-10-17T01:34:33.527Z,1.27
2022-10-17T01:38:04.511Z,1.17
2022-10-17T01:41:38.751Z,1.20
2022-10-17T01:45:10.978Z,1.27
2022-10-17T01:48:41.277Z,1.10
2022-10-17T01:52:11.100Z,1.03
2022-10-17T01:55:37.726Z,1.20
2022-10-17T01:59:06.515Z,1.10
2022-10-17T02:02:32.082Z,0.97
2022-10-17T02:05:57.323Z,1.00
2022-10-17T02:09:23.175Z,1.37
2022-10-17T02:12:56.291Z,1.20
2022-10-17T02:16:31.968Z,1.20
2022-10-17T02:20:05.016Z,1.20
2022-10-17T02:23:38.000Z,1.27
2022-10-17T02:27:12.959Z,1.00
2022-10-17T02:30:43.034Z,1.00
2022-10-17T02:34:12.727Z,1.10
2022-10-17T02:37:38.334Z,1.00
2022-10-17T02:41:04.715Z,1.00
2022-10-17T02:44:29.454Z,1.03
2022-10-17T02:47:59.854Z,1.07
2022-10-17T02:51:30.757Z,1.20
2022-10-17T02:55:02.095Z,1.20
2022-10-17T02:58:34.365Z,1.37
2022-10-17T03:01:58.994Z,1.30
2022-10-17T03:05:24.879Z,1.20
2022-10-17T03:08:48.640Z,1.20
2022-10-17T03:12:12.584Z,1.10
2022-10-17T03:15:37.846Z,1.00
2022-10-17T03:19:01.667Z,1.33
2022-10-17T03:22:26.559Z,1.33
2022-10-17T03:25:50.615Z,1.20
2022-10-17T03:29:15.528Z,1.00
2022-10-17T03:32:40.943Z,1.10
2022-10-17T03:36:10.103Z,0.90
2022-10-17T03:39:33.927Z,1.20
2022-10-17T03:42:57.728Z,1.00
2022-10-17T03:46:21.771Z,1.40
2022-10-17T03:49:46.916Z,1.07
2022-10-17T03:53:11.995Z,1.10
2022-10-17T03:56:36.108Z,1.40
2022-10-17T04:00:02.207Z,1.20
2022-10-17T04:03:26.977Z,1.00
2022-10-17T04:06:52.378Z,1.20
2022-10-17T04:10:16.690Z,1.43
2022-10-17T04:13:40.815Z,1.47
2022-10-17T04:17:04.728Z,1.70
2022-10-17T04:20:29.719Z,1.20
2022-10-17T04:23:56.815Z,1.30
2022-10-17T04:27:37.272Z,1.70
2022-10-17T04:31:02.355Z,1.20
2022-10-17T04:34:30.740Z,1.27
2022-10-17T04:37:54.677Z,1.70
2022-10-17T04:41:20.513Z,1.30
2022-10-17T04:44:44.353Z,1.37
2022-10-17T04:48:10.996Z,1.30
2022-10-17T04:51:35.586Z,1.27
2022-10-17T04:55:16.193Z,1.13
2022-10-17T04:58:42.572Z,1.40
2022-10-17T05:02:06.852Z,1.30
2022-10-17T05:05:31.450Z,1.30
2022-10-17T05:08:59.183Z,1.70
2022-10-17T05:12:23.559Z,1.30
2022-10-17T05:15:49.012Z,1.27
2022-10-17T05:19:13.317Z,1.17
2022-10-17T05:22:42.473Z,1.17
2022-10-17T05:26:08.485Z,1.20
2022-10-17T05:29:32.606Z,1.50
2022-10-17T05:33:17.519Z,1.30
2022-10-17T05:36:42.256Z,1.00
2022-10-17T05:40:08.017Z,1.00
2022-10-17T05:43:32.943Z,1.30
2022-10-17T05:46:56.815Z,1.30
2022-10-17T05:50:23.950Z,1.70
2022-10-17T05:54:13.859Z,1.50
2022-10-17T05:57:37.663Z,1.10
2022-10-17T06:01:09.361Z,1.27
2022-10-17T06:04:35.978Z,1.50
2022-10-17T06:08:02.148Z,1.80
2022-10-17T06:11:28.869Z,1.30
2022-10-17T06:14:52.692Z,1.20
2022-10-17T06:18:18.096Z,1.40
2022-10-17T06:21:41.879Z,1.10
2022-10-17T06:25:18.099Z,1.30
2022-10-17T06:28:42.422Z,1.30
2022-10-17T06:32:08.660Z,1.23
2022-10-17T06:35:35.399Z,1.20
2022-10-17T06:38:59.214Z,1.30
2022-10-17T06:42:34.049Z,1.40
2022-10-17T06:46:05.595Z,1.40
2022-10-17T06:49:38.964Z,1.30
2022-10-17T06:53:15.593Z,1.33
2022-10-17T06:57:02.903Z,1.23
2022-10-17T07:00:39.736Z,1.17
2022-10-17T07:04:03.989Z,1.00
2022-10-17T07:07:31.451Z,1.20
2022-10-17T07:10:56.103Z,1.13
2022-10-17T07:14:19.923Z,1.37
2022-10-17T07:17:50.477Z,1.70
2022-10-17T07:21:15.696Z,1.70
2022-10-17T07:24:39.614Z,1.43
2022-10-17T07:28:16.163Z,1.43
2022-10-17T07:31:40.296Z,1.90
2022-10-17T07:35:06.863Z,1.30
2022-10-17T07:38:31.032Z,1.60
2022-10-17T07:41:55.339Z,1.40
2022-10-17T07:45:20.627Z,1.40
2022-10-17T07:48:44.583Z,1.53
2022-10-17T07:52:11.497Z,1.80
2022-10-17T07:55:35.244Z,1.37
2022-10-17T07:59:01.625Z,1.37
2022-10-17T08:02:29.206Z,1.40
2022-10-17T08:05:53.193Z,1.37
2022-10-17T08:09:18.461Z,1.67
2022-10-17T08:12:42.380Z,1.50
2022-10-17T08:16:08.615Z,2.03
2022-10-17T08:19:32.448Z,1.73
2022-10-17T08:22:56.553Z,1.60
2022-10-17T08:26:22.312Z,1.60
2022-10-17T08:29:48.372Z,1.53
2022-10-17T08:33:12.151Z,1.57
2022-10-17T08:36:36.280Z,1.50
2022-10-17T08:40:00.162Z,1.50
2022-10-17T08:43:37.865Z,1.47
2022-10-17T08:47:06.964Z,1.70
2022-10-17T08:50:35.656Z,1.87
2022-10-17T08:54:05.432Z,1.50
2022-10-17T08:57:29.880Z,1.57
2022-10-17T09:01:06.890Z,1.63
2022-10-17T09:04:57.320Z,1.70
2022-10-17T09:08:33.496Z,1.40
2022-10-17T09:12:06.140Z,1.40
2022-10-17T09:16:02.806Z,1.50
2022-10-17T09:19:32.087Z,1.40
2022-10-17T09:22:59.856Z,1.33
2022-10-17T09:26:25.567Z,1.70
2022-10-17T09:29:51.922Z,1.43
2022-10-17T09:33:34.423Z,1.60
2022-10-17T09:37:04.362Z,1.33
2022-10-17T09:40:34.589Z,1.80
2022-10-17T09:43:59.513Z,1.67
2022-10-17T09:47:30.563Z,1.60
2022-10-17T09:51:08.383Z,1.27
2022-10-17T09:54:45.534Z,1.10
2022-10-17T09:58:10.612Z,1.40
2022-10-17T10:01:34.844Z,1.37
2022-10-17T10:05:04.568Z,1.33
2022-10-17T10:08:33.369Z,1.70
2022-10-17T10:11:58.986Z,1.97
2022-10-17T10:15:35.900Z,1.43
2022-10-17T10:18:59.772Z,1.50
2022-10-17T10:22:24.598Z,1.53
2022-10-17T10:25:55.920Z,1.43
2022-10-17T10:29:28.876Z,1.30
2022-10-17T10:32:52.901Z,1.40
2022-10-17T10:36:16.909Z,1.70
2022-10-17T10:39:49.620Z,1.87
2022-10-17T10:43:25.916Z,1.20
2022-10-17T10:46:49.799Z,1.37
2022-10-17T10:50:27.673Z,1.20
2022-10-17T10:53:57.749Z,1.20
2022-10-17T10:57:26.484Z,1.10
2022-10-17T11:00:53.444Z,1.10
2022-10-17T11:04:27.345Z,1.13
2022-10-17T11:07:57.361Z,1.00
2022-10-17T11:11:30.825Z,1.10
2022-10-17T11:15:01.522Z,1.50
2022-10-17T11:18:31.356Z,1.40
2022-10-17T11:22:06.568Z,1.30
2022-10-17T11:25:34.845Z,1.00
2022-10-17T11:29:01.369Z,0.90
2022-10-17T11:32:32.742Z,1.33
2022-10-17T11:36:02.849Z,0.80
2022-10-17T11:39:33.524Z,1.03
2022-10-17T11:43:01.403Z,1.00
2022-10-17T11:46:26.943Z,1.10
2022-10-17T11:49:55.064Z,1.00
2022-10-17T11:53:23.885Z,1.00
2022-10-17T11:56:54.859Z,1.10
2022-10-17T12:00:32.513Z,1.20
2022-10-17T12:04:08.960Z,1.03
2022-10-17T12:07:44.155Z,1.00
2022-10-17T12:11:15.276Z,1.07
2022-10-17T12:14:44.213Z,1.13
2022-10-17T12:18:18.309Z,1.10
2022-10-17T12:21:57.123Z,1.20
2022-10-17T12:25:23.525Z,1.33
2022-10-17T12:28:49.428Z,1.10
2022-10-17T12:32:13.936Z,1.10
2022-10-17T12:35:39.217Z,1.63
2022-10-17T12:39:51.659Z,1.20
2022-10-17T12:47:40.032Z,1.33
2022-10-17T12:55:17.051Z,1.10
2022-10-17T12:58:46.895Z,1.20
2022-10-17T13:02:19.230Z,1.07
2022-10-17T13:05:50.861Z,1.30
2022-10-17T13:09:26.851Z,1.17
2022-10-17T13:12:52.036Z,1.20
2022-10-17T13:16:30.539Z,1.20
2022-10-17T13:19:54.931Z,1.10
2022-10-17T13:23:26.115Z,1.37
2022-10-17T13:26:49.857Z,1.73
2022-10-17T13:30:29.311Z,1.60
2022-10-17T13:33:58.925Z,1.73
2022-10-17T13:37:22.889Z,1.40
2022-10-17T13:40:50.262Z,1.27
2022-10-17T13:44:20.773Z,1.50
2022-10-17T13:47:44.873Z,1.20
2022-10-17T13:51:11.126Z,1.97
2022-10-17T13:54:37.815Z,1.50
2022-10-17T13:58:16.425Z,1.63
2022-10-17T14:01:40.297Z,1.50
2022-10-17T14:05:17.375Z,1.50
2022-10-17T14:08:53.992Z,1.90
2022-10-17T14:12:20.192Z,1.60
2022-10-17T14:15:47.792Z,1.20
2022-10-17T14:19:23.998Z,1.27
2022-10-17T14:23:04.398Z,1.10
2022-10-17T14:26:37.030Z,1.20
2022-10-17T14:30:03.923Z,1.40
2022-10-17T14:33:31.228Z,1.50
2022-10-17T14:36:55.645Z,1.63
2022-10-17T14:40:21.283Z,1.67
2022-10-17T14:43:45.194Z,1.50
2022-10-17T14:47:41.834Z,1.30
2022-10-17T14:51:11.540Z,1.17
2022-10-17T14:54:38.170Z,1.30
2022-10-17T14:58:02.903Z,1.27
2022-10-17T15:01:26.798Z,1.50
2022-10-17T15:04:50.726Z,1.40
2022-10-17T15:08:17.721Z,1.53
2022-10-17T15:11:41.481Z,1.40
2022-10-17T15:15:05.645Z,1.50
2022-10-17T15:18:29.519Z,1.60
2022-10-17T15:21:53.264Z,1.40
2022-10-17T15:25:18.488Z,1.70
2022-10-17T15:28:42.320Z,1.27
2022-10-17T15:32:06.287Z,1.40
2022-10-17T15:35:30.389Z,1.23
2022-10-17T15:38:56.425Z,1.40
2022-10-17T15:42:22.352Z,1.43
2022-10-17T15:45:46.169Z,1.20
2022-10-17T15:49:13.007Z,1.20
2022-10-17T15:52:36.974Z,1.20
2022-10-17T15:56:01.317Z,1.10
2022-10-17T15:59:33.093Z,1.30
2022-10-17T16:02:56.864Z,1.50
2022-10-17T16:06:21.851Z,1.50
2022-10-17T16:09:45.918Z,1.23
2022-10-17T16:13:17.248Z,1.30
2022-10-17T16:16:43.175Z,1.50
2022-10-17T16:20:08.071Z,1.23
2022-10-17T16:23:32.337Z,1.50
2022-10-17T16:26:56.175Z,1.30
2022-10-17T16:33:53.295Z,1.37
2022-10-17T16:37:17.553Z,1.43
2022-10-17T16:40:41.631Z,1.60
2022-10-17T16:44:07.316Z,1.60
2022-10-17T16:47:31.168Z,1.70
2022-10-17T16:50:56.321Z,1.63
2022-10-17T16:54:20.123Z,1.87
2022-10-17T17:01:15.593Z,1.63
2022-10-17T17:04:39.315Z,1.53
2022-10-17T17:08:04.951Z,1.47
2022-10-17T17:11:31.447Z,1.37
2022-10-17T17:14:55.310Z,1.37
2022-10-17T17:18:18.786Z,1.17
2022-10-17T17:21:47.539Z,1.13
2022-10-17T17:25:12.530Z,1.50
2022-10-17T17:28:37.279Z,2.13
2022-10-17T17:32:00.896Z,1.50
2022-10-17T17:35:24.364Z,1.33
2022-10-17T17:38:49.431Z,1.20
2022-10-17T17:42:14.276Z,1.33
2022-10-17T17:45:37.740Z,1.43
2022-10-17T17:49:02.016Z,1.30
2022-10-17T17:52:25.840Z,1.40
2022-10-17T17:55:49.360Z,1.40
2022-10-17T17:59:14.569Z,1.60
2022-10-17T18:02:42.166Z,1.63
2022-10-17T18:06:09.023Z,1.90
2022-10-17T18:09:32.821Z,1.50
2022-10-17T18:12:56.473Z,1.50
2022-10-17T18:16:21.336Z,1.90
2022-10-17T18:19:44.795Z,1.77
2022-10-17T18:23:08.236Z,1.50
2022-10-17T18:26:31.829Z,1.60
2022-10-17T18:29:55.604Z,1.80
2022-10-17T18:33:21.433Z,1.73
2022-10-17T18:36:45.431Z,1.63
2022-10-17T18:40:10.566Z,1.70
2022-10-17T18:43:35.579Z,1.83
2022-10-17T18:47:03.157Z,1.63
2022-10-17T18:50:29.693Z,1.70
2022-10-17T18:53:55.295Z,1.77
2022-10-17T18:57:21.478Z,1.40
2022-10-17T19:00:47.821Z,1.60
2022-10-17T19:04:11.919Z,1.83
2022-10-17T19:07:36.665Z,1.73
2022-10-17T19:11:06.774Z,1.90
2022-10-17T19:14:30.596Z,1.50
2022-10-17T19:17:54.373Z,1.90
2022-10-17T19:21:21.791Z,1.90
2022-10-17T19:24:47.595Z,2.10
2022-10-17T19:28:11.399Z,1.90
2022-10-17T19:31:36.462Z,2.53
2022-10-17T19:35:00.331Z,2.10
2022-10-17T19:38:24.289Z,2.07
2022-10-17T19:41:50.481Z,1.70
2022-10-17T19:45:14.224Z,1.90
2022-10-17T19:48:39.123Z,1.70
2022-10-17T19:52:02.916Z,1.80
2022-10-17T19:55:26.758Z,1.77
2022-10-17T19:58:53.907Z,1.43
2022-10-17T20:02:17.673Z,1.70
2022-10-17T20:05:41.442Z,1.60
2022-10-17T20:09:07.339Z,1.77
2022-10-17T20:12:34.288Z,1.70
2022-10-17T20:16:00.103Z,1.80
2022-10-17T20:19:24.033Z,2.07
2022-10-17T20:22:47.949Z,2.07
2022-10-17T20:30:01.956Z,2.20
2022-10-17T20:33:31.828Z,1.70
2022-10-17T20:36:55.892Z,1.83
2022-10-17T20:40:35.819Z,2.57
2022-10-17T20:43:59.869Z,2.27
2022-10-17T20:47:43.663Z,2.40
2022-10-17T20:51:10.637Z,2.70
2022-10-17T20:54:34.632Z,2.43
2022-10-17T20:57:59.012Z,2.37
2022-10-17T21:01:23.549Z,2.50
2022-10-17T21:04:48.242Z,2.20
2022-10-17T21:08:13.109Z,2.57
2022-10-17T21:11:36.629Z,2.53
2022-10-17T21:15:00.546Z,2.00
2022-10-17T21:18:24.352Z,2.20
2022-10-17T21:21:48.362Z,2.03
2022-10-17T21:25:13.581Z,2.70
2022-10-17T21:28:38.221Z,2.40
2022-10-17T21:32:01.805Z,2.23
2022-10-17T21:35:25.797Z,2.43
2022-10-17T21:38:51.473Z,2.40
2022-10-17T21:42:19.149Z,2.00
2022-10-17T21:45:43.012Z,2.37
2022-10-17T21:49:06.863Z,2.33
2022-10-17T21:52:31.013Z,2.17
2022-10-17T21:55:55.308Z,2.30
2022-10-17T21:59:20.453Z,2.00
2022-10-17T22:02:44.348Z,2.13
2022-10-17T22:06:34.548Z,2.20
2022-10-17T22:09:52.821Z,2.13
2022-10-17T22:13:16.290Z,1.90
2022-10-17T22:16:41.860Z,2.93
2022-10-17T22:20:06.291Z,2.17
2022-10-17T22:23:29.803Z,1.93
2022-10-17T22:26:53.390Z,2.20
2022-10-17T22:30:17.004Z,2.30
2022-10-17T22:33:48.752Z,2.17
2022-10-17T22:37:12.358Z,2.30
2022-10-17T22:40:35.804Z,2.40
2022-10-17T22:43:59.254Z,1.93
2022-10-17T22:47:22.661Z,2.27
2022-10-17T22:50:49.296Z,2.60
2022-10-17T22:54:12.679Z,2.47
2022-10-17T22:57:36.474Z,2.37
2022-10-17T23:00:59.928Z,2.30
2022-10-17T23:04:23.694Z,1.97
2022-10-17T23:07:48.507Z,1.90
2022-10-17T23:11:12.528Z,2.37
2022-10-17T23:14:38.416Z,2.00
2022-10-17T23:18:03.168Z,2.20
2022-10-17T23:21:26.594Z,2.40
2022-10-17T23:24:51.343Z,1.97
2022-10-17T23:28:15.055Z,1.77
2022-10-17T23:31:38.430Z,1.60
2022-10-17T23:35:01.807Z,1.97
2022-10-17T23:38:25.213Z,1.80
2022-10-17T23:41:50.061Z,1.80
2022-10-17T23:45:14.202Z,2.03
2022-10-17T23:48:38.640Z,1.90
2022-10-17T23:52:02.502Z,2.03
2022-10-17T23:55:25.915Z,1.97
2022-10-17T23:58:50.652Z,1.63
